Time;durP1;ratioP1;P1;durP2;ratioP2;P2;SDS_P1;SDS_P2;PMS_P1;PMS_P2;Temp;Humidity;BMP_temperature;BMP_pressure;BME280_temperature;BME280_humidity;BME280_pressure;Samples;Min_cycle;Max_cycle;Signal;HPM_P1;HPM_P2
2022/05/12 00:01:04;;;;;;;3.53;1.20;;;23.90;43.60;;;;;;5135768;28;20458;-37
2022/05/12 00:03:30;;;;;;;5.35;1.70;;;23.90;43.60;;;;;;5135775;28;20011;-37
2022/05/12 00:05:55;;;;;;;3.20;1.25;;;23.90;43.60;;;;;;5134186;28;20053;-39
2022/05/12 00:08:21;;;;;;;3.53;1.15;;;23.90;43.70;;;;;;5135381;28;20380;-37
2022/05/12 00:10:47;;;;;;;3.13;1.10;;;23.90;43.70;;;;;;5135638;28;20122;-38
2022/05/12 00:13:12;;;;;;;3.55;1.40;;;23.90;43.70;;;;;;5135339;28;20027;-37
2022/05/12 00:15:38;;;;;;;3.33;1.40;;;23.90;43.70;;;;;;5136222;27;20014;-37
2022/05/12 00:18:06;;;;;;;3.42;1.13;;;23.90;43.70;;;;;;5138783;27;20465;-37
2022/05/12 00:20:33;;;;;;;3.60;1.55;;;23.90;43.70;;;;;;5137548;27;20030;-37
2022/05/12 00:23:10;;;;;;;4.93;1.40;;;23.90;43.80;;;;;;5139052;27;20507;-37
2022/05/12 00:25:37;;;;;;;3.83;1.42;;;23.90;43.80;;;;;;5139517;27;20159;-37
2022/05/12 00:28:04;;;;;;;3.45;1.40;;;23.80;43.80;;;;;;5139948;27;20043;-38
2022/05/12 00:30:30;;;;;;;3.58;1.58;;;23.90;43.80;;;;;;5139888;27;20019;-38
2022/05/12 00:32:57;;;;;;;2.92;1.35;;;23.90;43.90;;;;;;5139526;27;20087;-38
2022/05/12 00:35:23;;;;;;;3.92;1.65;;;23.90;43.90;;;;;;5139116;27;20462;-37
2022/05/12 00:37:49;;;;;;;3.55;1.30;;;23.80;43.90;;;;;;5137474;27;20015;-42
2022/05/12 00:40:15;;;;;;;4.10;1.33;;;23.90;43.90;;;;;;5138537;27;20053;-37
2022/05/12 00:43:02;;;;;;;2.95;1.35;;;23.80;43.90;;;;;;5138696;27;20041;-39
2022/05/12 00:45:30;;;;;;;2.53;1.50;;;23.80;43.90;;;;;;5138700;27;20024;-37
2022/05/12 00:47:56;;;;;;;2.83;1.23;;;23.90;43.90;;;;;;5138987;27;20022;-38
2022/05/12 00:50:26;;;;;;;4.38;1.40;;;23.80;43.90;;;;;;5138452;27;20023;-38
2022/05/12 00:52:52;;;;;;;4.00;1.60;;;23.80;43.90;;;;;;5137293;27;20011;-39
2022/05/12 00:55:25;;;;;;;3.05;1.30;;;23.80;43.90;;;;;;5119898;27;20023;-38
2022/05/12 00:57:52;;;;;;;4.43;1.95;;;23.80;44.00;;;;;;5138138;27;20465;-40
2022/05/12 01:00:18;;;;;;;2.92;1.50;;;23.80;44.00;;;;;;5138840;27;20012;-40
2022/05/12 01:02:46;;;;;;;2.75;1.48;;;23.80;44.00;;;;;;5139094;27;20023;-40
2022/05/12 01:05:12;;;;;;;2.25;1.30;;;23.80;44.00;;;;;;5138419;27;20015;-39
2022/05/12 01:07:38;;;;;;;3.85;1.90;;;23.80;44.10;;;;;;5138720;27;20025;-38
2022/05/12 01:10:04;;;;;;;4.22;1.63;;;23.80;44.10;;;;;;5137936;27;20105;-38
2022/05/12 01:12:31;;;;;;;3.97;1.60;;;23.80;44.10;;;;;;5137999;27;20015;-38
2022/05/12 01:14:56;;;;;;;3.55;1.63;;;23.80;44.10;;;;;;5137899;27;20038;-40
2022/05/12 01:17:24;;;;;;;4.03;1.50;;;23.80;44.10;;;;;;5139444;27;20472;-38
2022/05/12 01:19:51;;;;;;;3.80;1.55;;;23.80;44.10;;;;;;5140064;27;20366;-41
2022/05/12 01:22:46;;;;;;;5.10;1.92;;;23.80;44.10;;;;;;5141948;27;20500;-39
2022/05/12 01:25:15;;;;;;;3.35;1.42;;;23.80;44.20;;;;;;5140988;27;20126;-38
2022/05/12 01:27:42;;;;;;;4.38;1.60;;;23.80;44.20;;;;;;5139278;27;20035;-38
2022/05/12 01:30:08;;;;;;;4.45;1.80;;;23.80;44.20;;;;;;5138238;27;20508;-39
2022/05/12 01:32:35;;;;;;;3.25;1.65;;;23.80;44.20;;;;;;5138020;27;20064;-42
2022/05/12 01:35:02;;;;;;;3.00;1.40;;;23.80;44.30;;;;;;5139251;27;20012;-42
2022/05/12 01:37:28;;;;;;;3.33;1.80;;;23.70;44.20;;;;;;5137462;27;20068;-37
2022/05/12 01:39:54;;;;;;;4.05;1.75;;;23.70;44.20;;;;;;5139203;27;20406;-40
2022/05/12 01:42:20;;;;;;;2.92;1.63;;;23.80;44.30;;;;;;5138310;27;20083;-37
2022/05/12 01:44:45;;;;;;;3.35;1.65;;;23.80;44.30;;;;;;5137364;27;20045;-37
2022/05/12 01:47:12;;;;;;;6.03;1.88;;;23.80;44.30;;;;;;5137525;27;20030;-38
2022/05/12 01:49:39;;;;;;;3.95;1.70;;;23.70;44.30;;;;;;5137539;27;20038;-40
2022/05/12 01:52:06;;;;;;;5.03;1.73;;;23.80;44.30;;;;;;5138125;27;20012;-36
2022/05/12 01:54:32;;;;;;;5.50;2.08;;;23.80;44.30;;;;;;5138416;27;20027;-37
2022/05/12 01:56:58;;;;;;;5.95;2.10;;;23.70;44.40;;;;;;5138134;27;20016;-37
2022/05/12 01:59:26;;;;;;;3.20;1.83;;;23.70;44.30;;;;;;5138269;27;20090;-36
2022/05/12 02:01:52;;;;;;;4.05;1.90;;;23.70;44.40;;;;;;5137963;27;20041;-38
2022/05/12 02:04:18;;;;;;;2.75;1.63;;;23.70;44.30;;;;;;5136417;27;20082;-37
2022/05/12 02:06:45;;;;;;;5.22;1.90;;;23.70;44.40;;;;;;5137855;27;20103;-37
2022/05/12 02:09:11;;;;;;;4.05;2.13;;;23.70;44.40;;;;;;5137867;27;20080;-37
2022/05/12 02:11:37;;;;;;;4.70;1.88;;;23.70;44.40;;;;;;5137627;27;20007;-37
2022/05/12 02:14:04;;;;;;;5.45;2.00;;;23.70;44.40;;;;;;5136130;27;20381;-37
2022/05/12 02:16:30;;;;;;;5.10;1.70;;;23.70;44.40;;;;;;5137588;27;20086;-36
2022/05/12 02:18:56;;;;;;;3.58;1.88;;;23.70;44.40;;;;;;5137298;27;20003;-37
2022/05/12 02:21:21;;;;;;;5.55;2.00;;;23.70;44.40;;;;;;5137341;27;20524;-38
2022/05/12 02:23:47;;;;;;;4.57;1.85;;;23.70;44.90;;;;;;5137425;27;20012;-36
2022/05/12 02:26:15;;;;;;;4.57;2.00;;;23.70;44.40;;;;;;5137644;27;20016;-36
2022/05/12 02:28:41;;;;;;;4.70;1.67;;;23.70;44.50;;;;;;5137468;27;20027;-37
2022/05/12 02:31:07;;;;;;;4.05;2.00;;;23.70;44.50;;;;;;5137103;27;20473;-37
2022/05/12 02:33:33;;;;;;;4.00;1.67;;;23.70;44.50;;;;;;5136958;27;20050;-37
2022/05/12 02:35:59;;;;;;;3.80;1.65;;;23.60;44.50;;;;;;5137655;27;20039;-40
2022/05/12 02:38:25;;;;;;;4.85;1.88;;;23.70;44.50;;;;;;5137221;27;20028;-37
2022/05/12 02:40:51;;;;;;;3.22;1.73;;;23.60;44.40;;;;;;5137476;27;20174;-38
2022/05/12 02:43:23;;;;;;;3.10;1.52;;;23.60;44.50;;;;;;5137798;27;20035;-37
2022/05/12 02:46:08;;;;;;;4.55;2.10;;;23.70;44.50;;;;;;5137214;27;20481;-37
2022/05/12 02:48:36;;;;;;;5.53;1.80;;;23.60;44.40;;;;;;5136417;27;20029;-38
2022/05/12 02:51:03;;;;;;;3.92;1.88;;;23.60;44.40;;;;;;5136205;27;20354;-37
2022/05/12 02:53:29;;;;;;;4.75;1.90;;;23.60;44.50;;;;;;5135847;27;20015;-36
2022/05/12 02:55:55;;;;;;;4.30;1.77;;;23.60;44.50;;;;;;5136530;27;20090;-37
2022/05/12 02:58:20;;;;;;;4.10;1.80;;;23.60;44.40;;;;;;5136463;27;20376;-39
2022/05/12 03:00:47;;;;;;;3.22;1.83;;;23.60;44.40;;;;;;5136624;27;20015;-37
2022/05/12 03:03:13;;;;;;;6.03;2.10;;;23.60;44.40;;;;;;5136097;27;20580;-36
2022/05/12 03:05:39;;;;;;;4.65;1.60;;;23.60;44.40;;;;;;5136365;27;20034;-36
2022/05/12 03:08:06;;;;;;;5.70;2.20;;;23.60;44.40;;;;;;5136286;27;20019;-37
2022/05/12 03:10:32;;;;;;;4.85;2.00;;;23.60;44.40;;;;;;5135666;27;20148;-37
2022/05/12 03:12:58;;;;;;;3.75;1.70;;;23.60;44.40;;;;;;5136215;27;20072;-37
2022/05/12 03:15:24;;;;;;;5.90;2.10;;;23.60;44.40;;;;;;5136090;27;20018;-37
2022/05/12 03:17:51;;;;;;;5.38;2.20;;;23.60;44.40;;;;;;5136780;27;20031;-38
2022/05/12 03:20:18;;;;;;;4.72;1.77;;;23.60;44.40;;;;;;5134991;27;20054;-38
2022/05/12 03:22:44;;;;;;;3.38;1.55;;;23.60;44.30;;;;;;5136216;27;20018;-38
2022/05/12 03:25:11;;;;;;;4.68;2.10;;;23.60;44.30;;;;;;5136633;27;20023;-37
2022/05/12 03:27:37;;;;;;;4.85;1.63;;;23.60;44.30;;;;;;5136939;27;20011;-37
2022/05/12 03:30:05;;;;;;;4.68;2.30;;;23.60;44.20;;;;;;5136605;27;20027;-38
2022/05/12 03:32:31;;;;;;;4.43;1.83;;;23.60;44.30;;;;;;5137728;27;20025;-39
2022/05/12 03:34:57;;;;;;;6.57;2.15;;;23.60;44.30;;;;;;5136372;27;20111;-38
2022/05/12 03:37:23;;;;;;;4.18;1.80;;;23.60;44.30;;;;;;5135347;27;20465;-40
2022/05/12 03:39:48;;;;;;;5.32;1.98;;;23.60;44.30;;;;;;5135575;27;20029;-37
2022/05/12 03:42:15;;;;;;;3.92;1.83;;;23.60;44.20;;;;;;5136343;27;20022;-37
2022/05/12 03:44:49;;;;;;;4.60;1.85;;;23.60;44.20;;;;;;5136745;27;20027;-38
2022/05/12 03:47:22;;;;;;;5.40;1.90;;;23.60;44.20;;;;;;5136440;27;20035;-39
2022/05/12 03:49:48;;;;;;;4.85;1.85;;;23.50;44.20;;;;;;5137240;27;20034;-38
2022/05/12 03:52:15;;;;;;;4.55;2.00;;;23.60;44.20;;;;;;5136246;27;20011;-38
2022/05/12 03:54:41;;;;;;;5.13;2.00;;;23.60;44.20;;;;;;5135010;27;20838;-37
2022/05/12 03:57:07;;;;;;;4.80;2.05;;;23.50;44.10;;;;;;5136165;27;20015;-38
2022/05/12 03:59:34;;;;;;;4.40;1.70;;;23.50;44.10;;;;;;5135312;28;20366;-37
2022/05/12 04:01:59;;;;;;;4.68;2.03;;;23.60;44.10;;;;;;5135624;27;20033;-37
2022/05/12 04:04:26;;;;;;;4.63;1.90;;;23.50;44.10;;;;;;5135384;27;20015;-39
2022/05/12 04:06:52;;;;;;;3.88;1.70;;;23.50;44.00;;;;;;5135080;27;20026;-37
2022/05/12 04:09:18;;;;;;;4.50;1.80;;;23.50;44.10;;;;;;5134780;27;20027;-38
2022/05/12 04:11:43;;;;;;;5.43;2.10;;;23.50;44.00;;;;;;5134587;28;20019;-37
2022/05/12 04:14:09;;;;;;;4.28;1.88;;;23.50;44.00;;;;;;5134422;28;20477;-38
2022/05/12 04:16:36;;;;;;;4.07;1.70;;;23.50;43.90;;;;;;5133698;28;20023;-37
2022/05/12 04:19:05;;;;;;;5.57;1.90;;;23.50;43.90;;;;;;5134417;27;20026;-37
2022/05/12 04:21:34;;;;;;;6.13;2.25;;;23.50;43.90;;;;;;5134599;28;20047;-39
2022/05/12 04:24:04;;;;;;;4.80;1.77;;;23.60;44.00;;;;;;5134788;27;20035;-37
2022/05/12 04:26:30;;;;;;;5.40;2.35;;;23.50;43.80;;;;;;5133776;28;20011;-39
2022/05/12 04:28:55;;;;;;;5.88;2.13;;;23.60;43.70;;;;;;5133121;28;20011;-37
2022/05/12 04:31:22;;;;;;;3.70;1.75;;;23.70;43.50;;;;;;5134701;28;20027;-37
2022/05/12 04:36:34;;;;;;;4.53;1.98;;;23.80;43.20;;;;;;5134953;28;20084;-38
2022/05/12 04:39:00;;;;;;;5.45;1.88;;;23.80;43.00;;;;;;5134609;28;20026;-38
2022/05/12 04:41:26;;;;;;;5.60;1.98;;;23.80;42.90;;;;;;5134770;28;20041;-38
2022/05/12 04:43:54;;;;;;;4.72;1.90;;;23.80;43.00;;;;;;5133430;28;20019;-37
2022/05/12 04:46:20;;;;;;;5.90;1.98;;;23.80;43.00;;;;;;5134784;27;20144;-37
2022/05/12 04:48:47;;;;;;;4.20;1.75;;;23.90;42.80;;;;;;5134863;28;20526;-37
2022/05/12 04:51:13;;;;;;;4.88;1.70;;;23.90;42.60;;;;;;5134737;28;20068;-37
2022/05/12 04:53:38;;;;;;;5.55;1.70;;;24.10;42.40;;;;;;5134426;28;20008;-41
2022/05/12 04:56:05;;;;;;;4.50;1.83;;;24.20;42.10;;;;;;5135685;28;20016;-37
2022/05/12 04:58:31;;;;;;;5.13;2.05;;;24.30;42.00;;;;;;5135016;27;20011;-37
2022/05/12 05:00:57;;;;;;;4.32;1.52;;;24.40;41.80;;;;;;5134729;27;20035;-39
2022/05/12 05:03:23;;;;;;;4.72;1.70;;;24.40;41.60;;;;;;5137933;27;20019;-37
2022/05/12 05:05:49;;;;;;;4.53;2.00;;;24.40;41.50;;;;;;5138350;27;20022;-41
2022/05/12 05:08:17;;;;;;;8.30;2.28;;;24.40;41.30;;;;;;5138055;27;20022;-37
2022/05/12 05:10:43;;;;;;;4.90;1.70;;;24.50;41.40;;;;;;5138211;27;20019;-37
2022/05/12 05:13:09;;;;;;;4.43;1.80;;;24.50;41.20;;;;;;5138531;27;20461;-37
2022/05/12 05:15:35;;;;;;;4.40;1.92;;;24.60;41.20;;;;;;5136929;27;20095;-37
2022/05/12 05:18:01;;;;;;;3.80;1.67;;;24.70;41.10;;;;;;5137481;27;20031;-38
2022/05/12 05:20:28;;;;;;;4.88;1.65;;;24.80;41.00;;;;;;5138112;27;20056;-38
2022/05/12 05:22:54;;;;;;;7.57;2.20;;;24.90;40.80;;;;;;5136955;27;20040;-37
2022/05/12 05:25:20;;;;;;;7.07;2.10;;;23.90;41.70;;;;;;5136894;27;20023;-38
2022/05/12 05:27:46;;;;;;;4.82;1.88;;;23.20;43.50;;;;;;5138106;27;20548;-37
2022/05/12 05:30:13;;;;;;;7.78;2.22;;;22.80;44.40;;;;;;5137606;27;20015;-36
2022/05/12 05:32:39;;;;;;;7.85;2.25;;;22.70;44.90;;;;;;5137903;27;20022;-37
2022/05/12 05:35:06;;;;;;;9.38;2.53;;;22.60;45.10;;;;;;5137638;27;20016;-37
2022/05/12 05:37:32;;;;;;;10.13;3.10;;;22.90;44.30;;;;;;5137928;27;20016;-36
2022/05/12 05:39:58;;;;;;;8.63;3.00;;;23.00;43.60;;;;;;5136368;27;20023;-39
2022/05/12 05:42:25;;;;;;;8.32;3.00;;;23.20;43.40;;;;;;5137639;27;20079;-37
2022/05/12 05:44:50;;;;;;;8.00;2.50;;;23.30;43.20;;;;;;5137400;27;20102;-37
2022/05/12 05:47:16;;;;;;;9.80;3.03;;;23.20;43.30;;;;;;5137106;27;20015;-36
2022/05/12 05:49:42;;;;;;;7.57;2.05;;;23.40;42.90;;;;;;5136646;27;20119;-37
2022/05/12 05:54:53;;;;;;;9.15;2.20;;;23.00;44.10;;;;;;5135672;27;20034;-37
2022/05/12 05:57:26;;;;;;;6.00;2.20;;;22.80;44.70;;;;;;5135659;27;20018;-37
2022/05/12 05:59:55;;;;;;;6.03;2.17;;;22.60;44.90;;;;;;5134550;27;20027;-37
2022/05/12 06:02:21;;;;;;;5.63;2.03;;;22.60;45.00;;;;;;5135369;27;20011;-38
2022/05/12 06:04:47;;;;;;;5.35;2.00;;;22.50;45.30;;;;;;5135928;27;20068;-38
2022/05/12 06:07:13;;;;;;;7.75;2.15;;;22.50;45.40;;;;;;5134427;27;20019;-38
2022/05/12 06:09:41;;;;;;;9.18;2.40;;;22.60;45.10;;;;;;5134369;27;20493;-38
2022/05/12 06:12:11;;;;;;;6.95;2.30;;;22.60;45.10;;;;;;5116281;27;20018;-38
2022/05/12 06:14:37;;;;;;;;;;;22.80;44.80;;;;;;5134240;27;20062;-38
2022/05/12 06:17:03;;;;;;;11.05;2.55;;;22.80;44.70;;;;;;5134671;27;19987;-38
2022/05/12 06:19:29;;;;;;;14.98;2.75;;;22.70;45.20;;;;;;5115633;27;20031;-38
2022/05/12 06:21:55;;;;;;;22.88;3.80;;;22.40;46.40;;;;;;5114388;27;20055;-38
2022/05/12 06:24:21;;;;;;;34.67;5.43;;;22.40;47.50;;;;;;5132845;27;20346;-37
2022/05/12 06:26:47;;;;;;;36.90;4.78;;;22.30;48.90;;;;;;5134867;27;20011;-37
2022/05/12 06:29:13;;;;;;;19.63;3.67;;;22.50;48.40;;;;;;5134170;27;20027;-37
2022/05/12 06:31:41;;;;;;;24.48;3.85;;;22.50;47.60;;;;;;5135566;27;20025;-37
2022/05/12 06:34:08;;;;;;;19.17;3.55;;;22.50;47.20;;;;;;5135258;27;20015;-37
2022/05/12 06:36:35;;;;;;;16.30;3.78;;;22.60;46.50;;;;;;5135666;27;20016;-36
2022/05/12 06:39:00;;;;;;;12.30;2.97;;;22.50;47.10;;;;;;5134600;27;20318;-38
2022/05/12 06:41:26;;;;;;;14.65;2.92;;;22.60;46.90;;;;;;5135306;27;20007;-37
2022/05/12 06:43:53;;;;;;;13.18;3.20;;;22.60;46.50;;;;;;5134305;27;20015;-37
2022/05/12 06:46:19;;;;;;;18.63;3.13;;;22.80;46.30;;;;;;5136093;27;20011;-37
2022/05/12 06:48:48;;;;;;;15.70;2.85;;;23.10;45.30;;;;;;5135649;27;20015;-38
2022/05/12 06:51:14;;;;;;;7.22;2.40;;;22.80;45.90;;;;;;5134390;27;20114;-37
2022/05/12 06:53:40;;;;;;;13.07;2.83;;;23.00;46.10;;;;;;5118539;27;20460;-37
2022/05/12 06:56:07;;;;;;;9.65;2.75;;;23.30;45.20;;;;;;5136372;27;20024;-38
2022/05/12 06:58:33;;;;;;;9.27;1.98;;;23.30;44.40;;;;;;5136189;27;20076;-37
2022/05/12 07:01:00;;;;;;;11.30;2.70;;;23.10;45.40;;;;;;5117930;27;20023;-37
2022/05/12 07:03:28;;;;;;;10.93;2.58;;;23.20;45.00;;;;;;5134988;27;20015;-36
2022/05/12 07:05:54;;;;;;;12.05;2.28;;;23.30;45.10;;;;;;5133163;27;20023;-37
2022/05/12 07:08:22;;;;;;;11.20;2.60;;;23.10;45.90;;;;;;5134494;27;20484;-37
2022/05/12 07:10:48;;;;;;;11.75;2.00;;;23.30;45.00;;;;;;5135380;27;20031;-37
2022/05/12 07:13:19;;;;;;;15.77;2.55;;;23.40;44.70;;;;;;5131854;27;20501;-36
2022/05/12 07:15:47;;;;;;;12.80;2.22;;;23.50;44.20;;;;;;5133547;27;20051;-37
2022/05/12 07:18:13;;;;;;;12.43;3.13;;;23.80;43.60;;;;;;5134503;27;20012;-38
2022/05/12 07:28:57;;;;;;;17.15;2.70;;;22.60;46.20;;;;;;5133297;27;20542;-38
2022/05/12 07:31:23;;;;;;;13.35;2.25;;;22.90;45.20;;;;;;5132677;27;20007;-37
2022/05/12 07:33:49;;;;;;;6.97;2.20;;;22.80;45.30;;;;;;5134019;27;20017;-38
2022/05/12 07:36:20;;;;;;;10.45;2.17;;;22.60;44.90;;;;;;5134330;27;20311;-37
2022/05/12 07:38:46;;;;;;;7.03;2.25;;;22.40;44.30;;;;;;5134544;27;20026;-37
2022/05/12 07:41:12;;;;;;;8.15;1.98;;;22.50;45.00;;;;;;5134222;27;20019;-37
2022/05/12 07:43:39;;;;;;;10.77;1.83;;;23.40;43.10;;;;;;5134142;27;20160;-38
2022/05/12 07:46:06;;;;;;;7.88;2.05;;;23.80;41.10;;;;;;5133966;27;20169;-38
2022/05/12 07:48:32;;;;;;;6.78;1.30;;;23.60;40.20;;;;;;5115527;28;20484;-37
2022/05/12 07:50:58;;;;;;;8.20;1.70;;;23.80;40.40;;;;;;5133871;27;20030;-38
2022/05/12 07:53:24;;;;;;;4.65;1.50;;;23.20;40.50;;;;;;5133900;27;20381;-37
2022/05/12 07:55:50;;;;;;;12.85;1.90;;;23.10;41.50;;;;;;5133830;27;20385;-39
2022/05/12 07:58:15;;;;;;;5.75;1.40;;;23.30;39.60;;;;;;5132510;27;20019;-37
2022/05/12 08:00:41;;;;;;;9.30;1.90;;;23.00;41.40;;;;;;5132805;27;20520;-38
2022/05/12 08:03:07;;;;;;;10.52;1.83;;;23.00;40.30;;;;;;5133284;27;20016;-38
2022/05/12 08:05:34;;;;;;;15.60;2.35;;;22.90;41.20;;;;;;5133597;27;20183;-38
2022/05/12 08:08:00;;;;;;;15.00;2.28;;;23.10;40.80;;;;;;5132922;27;20481;-38
2022/05/12 08:10:26;;;;;;;17.15;2.42;;;22.70;42.00;;;;;;5132305;28;20075;-37
2022/05/12 08:12:53;;;;;;;11.90;1.75;;;22.70;42.50;;;;;;5132491;28;20022;-38
2022/05/12 08:15:19;;;;;;;17.95;2.10;;;23.20;41.40;;;;;;5130877;28;20095;-37
2022/05/12 08:17:44;;;;;;;20.30;2.40;;;23.30;40.70;;;;;;5129571;28;20385;-38
2022/05/12 08:20:11;;;;;;;31.30;3.53;;;23.60;39.30;;;;;;5132153;27;20027;-38
2022/05/12 08:22:37;;;;;;;16.27;2.00;;;23.40;40.20;;;;;;5131735;28;20031;-38
2022/05/12 08:25:04;;;;;;;17.20;2.80;;;23.70;39.50;;;;;;5131825;28;20103;-39
2022/05/12 08:27:31;;;;;;;13.32;2.35;;;23.50;40.40;;;;;;5133555;28;20033;-39
2022/05/12 08:29:56;;;;;;;21.95;2.15;;;23.10;39.80;;;;;;5133348;27;20023;-38
2022/05/12 08:32:22;;;;;;;13.75;1.75;;;23.00;40.00;;;;;;5133738;27;20008;-39
2022/05/12 08:34:48;;;;;;;10.05;1.63;;;22.80;40.10;;;;;;5133983;28;20022;-38
2022/05/12 08:37:15;;;;;;;11.65;1.75;;;23.10;40.10;;;;;;5134691;27;20019;-40
2022/05/12 08:39:43;;;;;;;8.13;1.23;;;23.60;38.80;;;;;;5136403;27;20031;-38
2022/05/12 08:42:21;;;;;;;8.40;1.95;;;23.80;38.40;;;;;;5138014;27;20031;-39
2022/05/12 08:44:47;;;;;;;6.78;1.10;;;23.60;37.40;;;;;;5138083;27;20094;-37
2022/05/12 08:47:15;;;;;;;6.18;1.02;;;23.80;37.40;;;;;;5137620;27;20469;-38
2022/05/12 08:49:47;;;;;;;6.47;1.60;;;23.80;37.30;;;;;;5136140;27;20027;-38
2022/05/12 08:52:38;;;;;;;5.47;1.38;;;23.70;36.00;;;;;;5137452;27;20076;-37
2022/05/12 08:55:27;;;;;;;8.00;1.67;;;22.90;37.60;;;;;;5137327;27;20008;-37
2022/05/12 08:58:04;;;;;;;8.40;1.30;;;22.90;38.30;;;;;;5135950;27;20035;-37
2022/05/12 09:00:39;;;;;;;4.47;1.25;;;23.30;37.70;;;;;;5119022;27;20098;-36
2022/05/12 09:03:17;;;;;;;5.10;1.08;;;23.60;36.80;;;;;;5118945;27;20017;-37
2022/05/12 09:05:56;;;;;;;6.75;1.30;;;23.20;36.50;;;;;;5137111;27;20515;-38
2022/05/12 09:08:41;;;;;;;9.93;1.50;;;22.90;37.10;;;;;;5119465;27;20012;-38
2022/05/12 09:11:31;;;;;;;8.38;1.45;;;22.90;37.90;;;;;;5134139;27;20525;-38
2022/05/12 09:13:59;;;;;;;14.23;1.77;;;23.00;38.00;;;;;;5137219;27;20011;-40
2022/05/12 09:16:32;;;;;;;19.55;2.22;;;23.40;37.50;;;;;;5136955;27;20015;-39
2022/05/12 09:19:00;;;;;;;23.38;2.55;;;23.50;37.10;;;;;;5137820;27;20008;-39
2022/05/12 09:21:35;;;;;;;14.60;2.15;;;23.10;37.90;;;;;;5118607;27;20038;-37
2022/05/12 09:24:03;;;;;;;11.43;2.58;;;23.30;37.00;;;;;;5138128;27;20085;-40
2022/05/12 09:26:36;;;;;;;16.02;2.33;;;23.30;37.00;;;;;;5137147;27;20015;-37
2022/05/12 09:29:28;;;;;;;12.65;1.80;;;23.10;37.50;;;;;;5136832;27;20462;-38
2022/05/12 09:31:53;;;;;;;7.65;1.45;;;23.20;37.10;;;;;;5118508;27;20144;-37
2022/05/12 09:34:31;;;;;;;11.20;1.38;;;23.20;36.50;;;;;;5137656;27;20377;-39
2022/05/12 09:37:01;;;;;;;8.25;1.40;;;23.10;36.30;;;;;;5136107;27;20485;-37
2022/05/12 09:39:31;;;;;;;8.30;1.13;;;23.00;36.80;;;;;;5119585;27;20023;-41
2022/05/12 09:41:57;;;;;;;7.80;1.30;;;23.40;36.30;;;;;;5137790;27;20026;-37
2022/05/12 09:44:26;;;;;;;6.45;1.10;;;23.50;36.20;;;;;;5136278;27;20034;-37
2022/05/12 09:47:02;;;;;;;9.43;1.00;;;23.20;35.30;;;;;;5137149;27;20140;-40
2022/05/12 09:49:38;;;;;;;7.22;1.25;;;23.10;35.90;;;;;;5135876;27;20023;-37
2022/05/12 09:52:22;;;;;;;21.58;2.25;;;23.10;35.60;;;;;;5136585;27;20030;-38
2022/05/12 09:54:48;;;;;;;9.57;1.60;;;23.10;35.30;;;;;;5136418;27;20155;-38
2022/05/12 09:57:20;;;;;;;6.28;1.10;;;23.30;35.10;;;;;;5135055;27;20011;-38
2022/05/12 09:59:56;;;;;;;13.95;1.20;;;23.60;33.90;;;;;;5135416;27;20045;-38
2022/05/12 10:08:21;;;;;;;3.50;0.98;;;23.80;33.70;;;;;;5136917;27;20560;-37
2022/05/12 10:11:01;;;;;;;5.63;1.20;;;23.80;33.50;;;;;;5137653;27;20072;-38
2022/05/12 10:13:42;;;;;;;4.28;1.00;;;23.80;33.30;;;;;;5138414;27;20095;-39
2022/05/12 10:16:08;;;;;;;4.95;1.00;;;24.00;32.90;;;;;;5140459;27;20086;-39
2022/05/12 10:18:40;;;;;;;5.15;0.80;;;24.20;32.60;;;;;;5138257;27;20015;-39
2022/05/12 10:21:26;;;;;;;3.00;0.90;;;24.10;32.60;;;;;;5136049;27;20035;-38
2022/05/12 10:23:54;;;;;;;7.13;1.60;;;24.10;32.70;;;;;;5136765;27;20092;-37
2022/05/12 10:26:40;;;;;;;5.22;0.63;;;24.20;32.90;;;;;;5137917;27;20023;-38
2022/05/12 10:29:14;;;;;;;2.33;0.70;;;24.00;32.30;;;;;;5135438;27;20015;-40
2022/05/12 10:31:46;;;;;;;4.18;0.90;;;24.10;32.30;;;;;;5135036;27;20019;-38
2022/05/12 10:34:37;;;;;;;4.68;0.77;;;24.10;32.10;;;;;;5134830;27;20110;-38
2022/05/12 10:37:11;;;;;;;4.80;0.80;;;24.10;32.10;;;;;;5134573;27;20022;-38
2022/05/12 10:39:55;;;;;;;3.63;0.90;;;24.20;32.20;;;;;;5136323;27;20128;-38
2022/05/12 10:42:46;;;;;;;6.95;1.65;;;24.20;32.10;;;;;;5133983;27;20489;-38
2022/05/12 10:45:43;;;;;;;9.60;1.10;;;24.20;32.30;;;;;;5135657;27;20027;-38
2022/05/12 10:48:48;;;;;;;7.05;1.48;;;24.20;32.70;;;;;;5134706;27;20039;-38
2022/05/12 10:51:35;;;;;;;16.48;1.90;;;23.50;34.80;;;;;;5133697;27;20024;-38
2022/05/12 10:54:27;;;;;;;10.65;1.50;;;23.00;35.90;;;;;;5134345;27;20072;-38
2022/05/12 10:57:05;;;;;;;12.00;1.48;;;22.80;36.30;;;;;;5096193;27;20034;-37
2022/05/12 11:00:08;;;;;;;7.65;1.33;;;22.70;35.90;;;;;;5132671;27;20038;-38
2022/05/12 11:02:41;;;;;;;9.52;1.23;;;23.00;35.10;;;;;;5131849;27;20449;-38
2022/05/12 11:05:32;;;;;;;10.38;1.33;;;23.10;34.80;;;;;;5132814;27;20035;-38
2022/05/12 11:08:40;;;;;;;6.00;1.70;;;23.30;35.30;;;;;;5116980;27;20079;-38
2022/05/12 11:11:09;;;;;;;9.32;1.95;;;23.40;34.70;;;;;;5121839;27;20039;-38
2022/05/12 11:13:39;;;;;;;5.83;1.30;;;23.10;34.80;;;;;;5114484;27;20022;-38
2022/05/12 11:16:09;;;;;;;8.48;1.20;;;23.40;34.50;;;;;;5133393;27;20035;-37
2022/05/12 11:19:05;;;;;;;4.88;1.10;;;23.60;34.10;;;;;;5131865;27;20170;-37
2022/05/12 11:21:38;;;;;;;6.78;1.30;;;23.80;34.10;;;;;;5098167;27;20126;-37
2022/05/12 11:24:24;;;;;;;7.70;1.45;;;23.80;34.00;;;;;;5131822;27;20023;-38
2022/05/12 11:26:59;;;;;;;7.90;1.10;;;23.80;33.60;;;;;;5132748;27;20035;-39
2022/05/12 11:29:41;;;;;;;7.55;1.10;;;24.10;33.60;;;;;;5132560;27;20035;-38
2022/05/12 11:32:14;;;;;;;6.03;1.10;;;24.40;33.30;;;;;;5132598;27;20015;-38
2022/05/12 11:34:40;;;;;;;6.57;1.33;;;24.60;33.00;;;;;;5133045;27;20410;-38
2022/05/12 11:37:53;;;;;;;6.85;1.65;;;24.80;32.90;;;;;;5132317;27;20046;-37
2022/05/12 11:40:41;;;;;;;4.70;1.30;;;25.00;32.90;;;;;;5129314;27;20495;-37
2022/05/12 11:46:35;;;;;;;11.43;1.50;;;25.20;32.90;;;;;;5133781;27;20072;-38
2022/05/12 11:49:10;;;;;;;9.57;1.48;;;25.30;33.20;;;;;;5134129;27;20031;-38
2022/05/12 11:52:08;;;;;;;8.25;1.60;;;25.40;33.60;;;;;;5132791;27;20119;-37
2022/05/12 11:54:59;;;;;;;11.15;1.90;;;25.50;34.00;;;;;;5134101;27;20053;-37
2022/05/12 11:57:37;;;;;;;17.90;1.60;;;25.60;35.00;;;;;;5132615;27;20079;-37
2022/05/12 12:00:33;;;;;;;12.50;1.83;;;25.50;34.90;;;;;;5115801;27;20067;-37
2022/05/12 12:02:58;;;;;;;9.35;2.17;;;25.50;34.60;;;;;;5132431;27;20168;-37
2022/05/12 12:05:27;;;;;;;10.68;1.52;;;25.30;34.50;;;;;;5133945;28;20449;-37
2022/05/12 12:08:07;;;;;;;8.70;1.50;;;25.30;34.20;;;;;;5134042;27;20023;-37
2022/05/12 12:10:34;;;;;;;;;;;25.30;34.50;;;;;;5132443;27;20019;-38
2022/05/12 12:13:01;;;;;;;6.20;1.75;;;25.40;34.30;;;;;;5136076;27;19911;-36
2022/05/12 12:15:28;;;;;;;11.15;1.85;;;25.40;34.30;;;;;;5135973;27;20015;-36
2022/05/12 12:17:53;;;;;;;12.57;1.75;;;25.50;34.60;;;;;;5137413;27;20461;-37
2022/05/12 12:20:29;;;;;;;9.57;1.80;;;25.50;34.30;;;;;;5136188;27;20199;-37
2022/05/12 12:23:15;;;;;;;11.30;1.77;;;25.30;33.70;;;;;;5137361;27;20080;-38
2022/05/12 12:25:42;;;;;;;6.20;1.38;;;25.40;34.00;;;;;;5123023;27;20481;-36
2022/05/12 12:28:28;;;;;;;9.88;1.27;;;25.60;34.30;;;;;;5135140;27;20026;-36
2022/05/12 12:30:54;;;;;;;7.95;1.40;;;25.60;34.10;;;;;;5136733;27;20024;-36
2022/05/12 12:33:31;;;;;;;11.02;1.73;;;25.40;33.90;;;;;;5136032;27;20026;-36
2022/05/12 12:36:16;;;;;;;29.25;5.35;;;25.20;33.70;;;;;;5135080;27;20088;-36
2022/05/12 12:38:44;;;;;;;18.05;3.30;;;24.80;34.20;;;;;;5137011;27;20015;-36
2022/05/12 12:41:15;;;;;;;19.05;3.13;;;24.70;34.20;;;;;;5136884;27;20019;-36
2022/05/12 12:43:42;;;;;;;11.43;2.63;;;24.60;34.40;;;;;;5136330;27;20027;-36
2022/05/12 12:46:19;;;;;;;12.88;2.20;;;24.70;34.10;;;;;;5136435;27;20076;-36
2022/05/12 12:48:53;;;;;;;15.75;2.17;;;24.70;33.90;;;;;;5136413;27;20043;-36
2022/05/12 12:51:33;;;;;;;7.68;1.83;;;24.60;33.00;;;;;;5118602;27;20023;-36
2022/05/12 12:56:44;;;;;;;14.25;1.58;;;24.50;33.10;;;;;;5135647;27;20019;-36
2022/05/12 12:59:17;;;;;;;11.15;1.67;;;24.50;32.80;;;;;;5135112;27;20492;-36
2022/05/12 13:01:46;;;;;;;5.95;1.38;;;24.60;32.50;;;;;;5136343;27;20098;-36
2022/05/12 13:04:12;;;;;;;5.57;1.25;;;24.70;32.60;;;;;;5135229;27;20027;-36
2022/05/12 13:06:38;;;;;;;6.32;1.48;;;24.60;32.80;;;;;;5118079;27;20022;-36
2022/05/12 13:09:14;;;;;;;7.25;1.30;;;24.70;32.60;;;;;;5136929;27;20056;-36
2022/05/12 13:11:41;;;;;;;5.20;1.48;;;24.60;32.40;;;;;;5136385;27;20011;-36
2022/05/12 13:14:11;;;;;;;11.70;1.65;;;24.80;32.60;;;;;;5135291;27;20011;-36
2022/05/12 13:16:40;;;;;;;4.50;1.40;;;24.80;32.60;;;;;;5136225;27;20072;-38
2022/05/12 13:19:06;;;;;;;8.27;1.55;;;24.80;32.30;;;;;;5134786;27;20434;-37
2022/05/12 13:21:36;;;;;;;7.40;1.50;;;24.80;32.20;;;;;;5135533;27;20043;-36
2022/05/12 13:24:18;;;;;;;8.85;1.40;;;24.80;32.30;;;;;;5137927;27;19999;-36
2022/05/12 13:26:47;;;;;;;11.65;1.30;;;25.00;32.10;;;;;;5138662;27;20015;-37